createdAt,value
2019-01-09T00:01:37.341Z,1.30
2019-01-09T00:04:05.920Z,1.20
2019-01-09T00:06:34.760Z,1.20
2019-01-09T00:09:06.641Z,1.10
2019-01-09T00:11:35.202Z,1.10
2019-01-09T00:14:04.228Z,1.10
2019-01-09T00:16:32.993Z,1.10
2019-01-09T00:19:01.128Z,1.10
2019-01-09T00:21:29.851Z,1.00
2019-01-09T00:23:58.620Z,0.90
2019-01-09T00:26:27.166Z,0.90
2019-01-09T00:28:55.923Z,0.80
2019-01-09T00:31:24.560Z,0.90
2019-01-09T00:33:53.226Z,0.90
2019-01-09T00:36:22.016Z,0.90
2019-01-09T00:38:51.545Z,0.90
2019-01-09T00:41:19.713Z,0.90
2019-01-09T00:43:47.998Z,1.00
2019-01-09T00:46:16.656Z,1.00
2019-01-09T00:48:44.982Z,1.00
2019-01-09T00:51:13.786Z,1.10
2019-01-09T00:53:41.760Z,1.10
2019-01-09T00:56:10.457Z,1.00
2019-01-09T00:58:39.049Z,0.90
2019-01-09T01:01:07.874Z,0.90
2019-01-09T01:04:22.452Z,0.80
2019-01-09T01:07:27.212Z,0.80
2019-01-09T01:10:42.649Z,0.80
2019-01-09T01:13:42.772Z,0.80
2019-01-09T01:16:47.806Z,0.90
2019-01-09T01:19:49.576Z,1.00
2019-01-09T01:23:07.162Z,1.00
2019-01-09T01:26:01.338Z,1.10
2019-01-09T01:28:58.040Z,1.10
2019-01-09T01:31:49.962Z,1.10
2019-01-09T01:34:54.061Z,1.00
2019-01-09T01:37:52.671Z,1.00
2019-01-09T01:40:30.550Z,1.00
2019-01-09T01:43:15.810Z,0.90
2019-01-09T01:46:40.724Z,0.90
2019-01-09T01:49:50.180Z,1.00
2019-01-09T01:52:36.106Z,1.00
2019-01-09T01:55:22.863Z,1.00
2019-01-09T01:58:26.836Z,1.00
2019-01-09T02:01:22.723Z,1.00
2019-01-09T02:04:33.996Z,1.00
2019-01-09T02:07:52.560Z,1.00
2019-01-09T02:11:14.357Z,1.00
2019-01-09T02:14:17.692Z,1.00
2019-01-09T02:17:22.184Z,1.00
2019-01-09T02:20:22.936Z,1.00
2019-01-09T02:23:20.824Z,1.00
2019-01-09T02:26:31.722Z,1.00
2019-01-09T02:29:31.486Z,0.90
2019-01-09T02:32:31.667Z,0.90
2019-01-09T02:34:59.945Z,0.90
2019-01-09T02:37:28.307Z,0.90
2019-01-09T02:39:56.523Z,0.90
2019-01-09T02:42:24.814Z,0.90
2019-01-09T02:44:52.882Z,0.80
2019-01-09T02:47:21.116Z,0.90
2019-01-09T02:49:49.858Z,0.90
2019-01-09T02:52:18.087Z,0.90
2019-01-09T02:54:46.151Z,0.90
2019-01-09T02:57:14.150Z,0.90
2019-01-09T02:59:42.201Z,0.90
2019-01-09T03:02:10.423Z,0.90
2019-01-09T03:04:38.612Z,0.90
2019-01-09T03:07:06.779Z,1.00
2019-01-09T03:09:34.976Z,0.90
2019-01-09T03:12:03.205Z,0.90
2019-01-09T03:14:33.518Z,0.70
2019-01-09T03:17:03.535Z,0.40
2019-01-09T03:19:32.409Z,0.10
2019-01-09T03:22:01.934Z,-0.10
2019-01-09T03:24:30.182Z,-0.10
2019-01-09T03:26:58.413Z,-0.20
2019-01-09T03:29:26.775Z,-0.20
2019-01-09T03:31:55.061Z,-0.20
2019-01-09T03:34:23.192Z,-0.20
2019-01-09T03:36:51.481Z,-0.20
2019-01-09T03:39:19.572Z,-0.20
2019-01-09T03:41:47.883Z,-0.20
2019-01-09T03:44:18.274Z,-0.20
2019-01-09T03:46:46.543Z,-0.20
2019-01-09T03:49:15.272Z,-0.20
2019-01-09T03:51:43.821Z,-0.10
2019-01-09T03:54:12.628Z,-0.20
2019-01-09T03:56:41.404Z,-0.20
2019-01-09T03:59:10.092Z,-0.20
2019-01-09T04:01:39.011Z,-0.30
2019-01-09T04:04:08.233Z,-0.30
2019-01-09T04:06:42.081Z,-0.20
2019-01-09T04:09:07.868Z,-0.20
2019-01-09T04:11:36.525Z,-0.10
2019-01-09T04:14:05.237Z,-0.10
2019-01-09T04:16:33.701Z,0.00
2019-01-09T04:19:04.057Z,0.00
2019-01-09T04:21:32.542Z,0.00
2019-01-09T04:24:02.520Z,0.00
2019-01-09T04:26:31.241Z,0.00
2019-01-09T04:29:00.240Z,0.00
2019-01-09T04:31:30.554Z,0.00
2019-01-09T04:33:59.537Z,-0.10
2019-01-09T04:36:28.966Z,-0.10
2019-01-09T04:38:58.146Z,0.00
2019-01-09T04:41:27.045Z,-0.10
2019-01-09T04:43:56.836Z,-0.10
2019-01-09T04:46:26.387Z,-0.10
2019-01-09T04:48:55.229Z,-0.10
2019-01-09T04:51:24.194Z,-0.10
2019-01-09T04:53:52.818Z,-0.10
2019-01-09T04:56:22.243Z,-0.10
2019-01-09T04:58:51.287Z,-0.10
2019-01-09T05:01:20.302Z,-0.20
2019-01-09T05:03:48.757Z,0.00
2019-01-09T05:06:17.056Z,0.00
2019-01-09T05:08:45.309Z,0.00
2019-01-09T05:11:13.929Z,0.00
2019-01-09T05:13:45.286Z,0.00
2019-01-09T05:16:13.303Z,-0.10
2019-01-09T05:18:41.470Z,-0.10
2019-01-09T05:21:09.954Z,-0.10
2019-01-09T05:23:38.075Z,-0.10
2019-01-09T05:26:08.222Z,-0.10
2019-01-09T05:28:36.857Z,0.00
2019-01-09T05:31:07.661Z,0.00
2019-01-09T05:33:35.423Z,0.00
2019-01-09T05:36:03.870Z,0.00
2019-01-09T05:38:31.976Z,0.10
2019-01-09T05:41:00.202Z,0.10
2019-01-09T05:43:28.668Z,0.10
2019-01-09T05:45:56.925Z,0.10
2019-01-09T05:48:25.960Z,0.10
2019-01-09T05:50:54.436Z,0.10
2019-01-09T05:53:22.656Z,0.10
2019-01-09T05:55:52.812Z,0.10
2019-01-09T05:58:20.243Z,0.20
2019-01-09T06:00:48.549Z,0.10
2019-01-09T06:03:17.123Z,0.10
2019-01-09T06:05:45.466Z,0.10
2019-01-09T06:08:13.628Z,0.20
2019-01-09T06:10:42.062Z,0.10
2019-01-09T06:13:09.552Z,0.20
2019-01-09T06:15:36.963Z,0.20
2019-01-09T06:18:04.481Z,0.20
2019-01-09T06:20:31.934Z,0.30
2019-01-09T06:22:59.456Z,0.20
2019-01-09T06:25:26.888Z,0.20
2019-01-09T06:27:54.211Z,0.30
2019-01-09T06:30:22.427Z,0.30
2019-01-09T06:32:50.784Z,0.30
2019-01-09T06:35:19.079Z,0.20
2019-01-09T06:37:47.199Z,0.20
2019-01-09T06:40:15.425Z,0.10
2019-01-09T06:42:44.006Z,0.20
2019-01-09T06:45:12.373Z,0.30
2019-01-09T06:47:40.668Z,0.30
2019-01-09T06:50:12.636Z,0.20
2019-01-09T06:52:40.905Z,0.20
2019-01-09T06:55:09.282Z,0.20
2019-01-09T06:57:38.696Z,0.10
2019-01-09T07:00:08.144Z,0.10
2019-01-09T07:02:36.247Z,0.10
2019-01-09T07:05:04.807Z,0.10
2019-01-09T07:07:36.095Z,0.20
2019-01-09T07:10:03.085Z,0.20
2019-01-09T07:12:31.597Z,0.20
2019-01-09T07:14:59.709Z,0.10
2019-01-09T07:17:27.923Z,0.10
2019-01-09T07:19:56.256Z,0.00
2019-01-09T07:22:24.621Z,0.00
2019-01-09T07:24:53.052Z,0.00
2019-01-09T07:27:21.127Z,-0.10
2019-01-09T07:29:49.335Z,-0.10
2019-01-09T07:32:17.571Z,-0.10
2019-01-09T07:34:46.005Z,-0.10
2019-01-09T07:37:14.236Z,0.00
2019-01-09T07:39:42.644Z,0.10
2019-01-09T07:42:11.972Z,0.10
2019-01-09T07:44:40.088Z,0.10
2019-01-09T07:47:10.780Z,0.10
2019-01-09T07:49:38.936Z,0.10
2019-01-09T07:52:07.145Z,0.10
2019-01-09T07:54:35.169Z,0.10
2019-01-09T07:57:05.269Z,0.10
2019-01-09T07:59:33.420Z,0.00
2019-01-09T08:02:01.941Z,0.00
2019-01-09T08:04:32.402Z,0.00
2019-01-09T08:07:00.654Z,0.00
2019-01-09T08:09:28.796Z,-0.10
2019-01-09T08:11:57.061Z,-0.10
2019-01-09T08:14:25.288Z,0.00
2019-01-09T08:16:53.531Z,0.00
2019-01-09T08:19:21.908Z,0.00
2019-01-09T08:21:50.285Z,0.00
2019-01-09T08:24:18.267Z,0.00
2019-01-09T08:26:46.719Z,0.00
2019-01-09T08:29:15.319Z,0.00
2019-01-09T08:31:43.767Z,0.00
2019-01-09T08:34:12.399Z,0.00
2019-01-09T08:36:40.617Z,0.00
2019-01-09T08:39:08.627Z,0.00
2019-01-09T08:41:36.900Z,0.00
2019-01-09T08:44:05.067Z,0.00
2019-01-09T08:46:33.318Z,0.10
2019-01-09T08:49:01.644Z,0.10
2019-01-09T08:51:30.127Z,0.10
2019-01-09T08:53:59.419Z,0.20
2019-01-09T08:56:27.601Z,0.20
2019-01-09T08:58:57.468Z,0.20
2019-01-09T09:01:25.976Z,0.30
2019-01-09T09:03:55.201Z,0.30
2019-01-09T09:06:23.407Z,0.30
2019-01-09T09:08:51.957Z,0.40
2019-01-09T09:11:20.274Z,0.50
2019-01-09T09:13:48.483Z,0.50
2019-01-09T09:16:16.735Z,0.60
2019-01-09T09:18:44.939Z,0.60
2019-01-09T09:21:13.186Z,0.60
2019-01-09T09:23:41.401Z,0.60
2019-01-09T09:26:09.553Z,0.60
2019-01-09T09:28:37.850Z,0.60
2019-01-09T09:31:06.025Z,0.60
2019-01-09T09:33:34.044Z,0.60
2019-01-09T09:36:02.359Z,0.60
2019-01-09T09:38:30.388Z,0.60
2019-01-09T09:41:00.566Z,0.50
2019-01-09T09:43:28.382Z,0.60
2019-01-09T09:45:56.447Z,0.60
2019-01-09T09:48:25.153Z,0.60
2019-01-09T09:50:53.187Z,0.60
2019-01-09T09:53:21.516Z,0.50
2019-01-09T09:55:49.748Z,0.40
2019-01-09T09:58:17.876Z,0.50
2019-01-09T10:00:46.244Z,0.50
2019-01-09T10:03:14.403Z,0.60
2019-01-09T10:05:42.581Z,0.60
2019-01-09T10:08:10.870Z,0.50
2019-01-09T10:10:39.394Z,0.50
2019-01-09T10:13:07.723Z,0.60
2019-01-09T10:15:36.054Z,0.60
2019-01-09T10:18:04.400Z,0.60
2019-01-09T10:20:32.770Z,0.60
2019-01-09T10:23:01.163Z,0.60
2019-01-09T10:25:29.503Z,0.50
2019-01-09T10:27:57.917Z,0.50
2019-01-09T10:30:26.208Z,0.40
2019-01-09T10:32:54.332Z,0.40
2019-01-09T10:35:22.464Z,0.40
2019-01-09T10:37:50.795Z,0.40
2019-01-09T10:40:19.566Z,0.40
2019-01-09T10:42:47.744Z,0.40
2019-01-09T10:45:17.839Z,0.40
2019-01-09T10:47:47.196Z,0.40
2019-01-09T10:50:15.346Z,0.40
2019-01-09T10:52:43.560Z,0.50
2019-01-09T10:55:13.202Z,0.50
2019-01-09T10:57:41.489Z,0.50
2019-01-09T11:00:13.642Z,0.50
2019-01-09T11:02:41.888Z,0.40
2019-01-09T11:05:10.531Z,0.50
2019-01-09T11:07:38.705Z,0.50
2019-01-09T11:10:07.690Z,0.50
2019-01-09T11:12:36.016Z,0.50
2019-01-09T11:15:05.324Z,0.50
2019-01-09T11:17:33.764Z,0.60
2019-01-09T11:20:01.977Z,0.80
2019-01-09T11:22:30.214Z,0.80
2019-01-09T11:24:58.427Z,0.90
2019-01-09T11:27:26.840Z,0.80
2019-01-09T11:29:55.120Z,0.80
2019-01-09T11:32:23.247Z,0.70
2019-01-09T11:34:51.347Z,0.70
2019-01-09T11:37:19.598Z,0.70
2019-01-09T11:39:47.634Z,0.70
2019-01-09T11:42:15.790Z,0.70
2019-01-09T11:44:44.044Z,0.80
2019-01-09T11:47:12.340Z,0.80
2019-01-09T11:49:40.724Z,0.80
2019-01-09T11:52:08.939Z,0.80
2019-01-09T11:54:36.952Z,0.80
2019-01-09T11:57:05.240Z,0.80
2019-01-09T11:59:33.471Z,0.70
2019-01-09T12:02:03.113Z,0.50
2019-01-09T12:04:31.175Z,0.50
2019-01-09T12:07:00.268Z,0.40
2019-01-09T12:09:29.881Z,0.30
2019-01-09T12:11:58.262Z,0.40
2019-01-09T12:14:26.443Z,0.50
2019-01-09T12:16:54.698Z,0.50
2019-01-09T12:19:23.829Z,0.60
2019-01-09T12:21:52.196Z,0.70
2019-01-09T12:24:20.443Z,0.70
2019-01-09T12:26:49.977Z,0.80
2019-01-09T12:29:18.330Z,0.80
2019-01-09T12:31:46.501Z,0.80
2019-01-09T12:34:14.596Z,0.80
2019-01-09T12:36:49.452Z,0.90
2019-01-09T12:39:17.923Z,0.80
2019-01-09T12:41:56.371Z,0.70
2019-01-09T12:44:24.595Z,0.60
2019-01-09T12:46:52.729Z,0.60
2019-01-09T12:49:20.996Z,0.70
2019-01-09T12:51:49.140Z,0.60
2019-01-09T12:54:17.352Z,0.60
2019-01-09T12:56:45.543Z,0.50
2019-01-09T12:59:21.613Z,0.50
2019-01-09T13:01:52.338Z,0.50
2019-01-09T13:04:24.361Z,0.40
2019-01-09T13:06:57.943Z,0.30
2019-01-09T13:09:26.096Z,0.20
2019-01-09T13:11:54.343Z,0.20
2019-01-09T13:14:22.333Z,0.20
2019-01-09T13:16:50.599Z,0.20
2019-01-09T13:19:18.588Z,0.30
2019-01-09T13:21:46.829Z,0.30
2019-01-09T13:24:15.112Z,0.20
2019-01-09T13:26:43.300Z,0.20
2019-01-09T13:29:11.414Z,0.10
2019-01-09T13:31:39.648Z,0.00
2019-01-09T13:34:07.789Z,0.00
2019-01-09T13:36:35.849Z,-0.10
2019-01-09T13:39:07.127Z,-0.10
2019-01-09T13:41:35.412Z,-0.20
2019-01-09T13:44:03.752Z,-0.20
2019-01-09T13:46:32.010Z,-0.20
2019-01-09T13:49:00.195Z,-0.30
2019-01-09T13:51:28.519Z,-0.30
2019-01-09T13:53:56.669Z,-0.30
2019-01-09T13:56:24.986Z,-0.30
2019-01-09T13:58:52.938Z,-0.30
2019-01-09T14:01:21.150Z,-0.30
2019-01-09T14:03:49.369Z,-0.30
2019-01-09T14:06:17.495Z,-0.30
2019-01-09T14:08:45.844Z,-0.30
2019-01-09T14:11:14.168Z,-0.30
2019-01-09T14:13:42.615Z,-0.30
2019-01-09T14:16:10.663Z,-0.30
2019-01-09T14:18:38.944Z,-0.30
2019-01-09T14:21:07.222Z,-0.30
2019-01-09T14:23:53.418Z,-0.30
2019-01-09T14:26:44.333Z,-0.30
2019-01-09T14:29:23.034Z,-0.30
2019-01-09T14:32:04.051Z,-0.40
2019-01-09T14:34:44.455Z,-0.40
2019-01-09T14:37:12.732Z,-0.40
2019-01-09T14:39:48.038Z,-0.40
2019-01-09T14:42:47.261Z,-0.40
2019-01-09T14:45:59.051Z,-0.40
2019-01-09T14:50:07.460Z,-0.50
2019-01-09T14:51:43.050Z,-0.50
2019-01-09T14:54:06.309Z,-0.50
2019-01-09T14:56:34.590Z,-0.50
2019-01-09T14:59:02.732Z,-0.60
2019-01-09T15:01:31.304Z,-0.60
2019-01-09T15:03:59.599Z,-0.60
2019-01-09T15:06:27.895Z,-0.60
2019-01-09T15:08:55.916Z,-0.70
2019-01-09T15:11:24.244Z,-0.70
2019-01-09T15:13:52.499Z,-0.80
2019-01-09T15:16:20.787Z,-0.80
2019-01-09T15:18:48.844Z,-0.80
2019-01-09T15:21:16.988Z,-0.80
2019-01-09T15:23:44.976Z,-0.90
2019-01-09T15:26:14.709Z,-0.90
2019-01-09T15:28:43.003Z,-0.90
2019-01-09T15:31:11.309Z,-0.90
2019-01-09T15:33:39.620Z,-0.90
2019-01-09T15:36:07.896Z,-0.90
2019-01-09T15:38:35.836Z,-0.90
2019-01-09T15:41:04.359Z,-0.90
2019-01-09T15:43:32.580Z,-0.90
2019-01-09T15:46:00.811Z,-0.90
2019-01-09T15:48:28.953Z,-1.00
2019-01-09T15:50:57.278Z,-1.00
2019-01-09T15:53:25.527Z,-1.00
2019-01-09T15:55:53.802Z,-1.00
2019-01-09T15:58:22.087Z,-1.00
2019-01-09T16:00:53.509Z,-1.00
2019-01-09T16:03:22.832Z,-1.00
2019-01-09T16:05:50.956Z,-1.00
2019-01-09T16:08:20.461Z,-1.00
2019-01-09T16:10:48.635Z,-1.00
2019-01-09T16:13:17.334Z,-1.10
2019-01-09T16:15:46.504Z,-1.10
2019-01-09T16:18:14.500Z,-1.10
2019-01-09T16:20:42.829Z,-1.10
2019-01-09T16:23:11.135Z,-1.10
2019-01-09T16:25:39.361Z,-1.10
2019-01-09T16:28:07.383Z,-1.10
2019-01-09T16:30:50.160Z,-1.10
2019-01-09T16:33:18.371Z,-1.10
2019-01-09T16:35:47.806Z,-1.10
2019-01-09T16:38:16.051Z,-1.10
2019-01-09T16:40:44.394Z,-1.10
2019-01-09T16:43:12.498Z,-1.10
2019-01-09T16:45:41.041Z,-1.20
2019-01-09T16:48:10.564Z,-1.10
2019-01-09T16:50:38.594Z,-1.20
2019-01-09T16:53:06.532Z,-1.20
2019-01-09T16:55:34.568Z,-1.10
2019-01-09T16:58:03.001Z,-1.10
2019-01-09T17:00:31.633Z,-1.10
2019-01-09T17:02:59.747Z,-1.10
2019-01-09T17:05:28.258Z,-1.20
2019-01-09T17:07:56.336Z,-1.20
2019-01-09T17:10:32.357Z,-1.20
2019-01-09T17:12:54.775Z,-1.20
2019-01-09T17:15:23.112Z,-1.20
2019-01-09T17:17:51.259Z,-1.20
2019-01-09T17:20:20.370Z,-1.20
2019-01-09T17:22:48.445Z,-1.20
2019-01-09T17:25:16.779Z,-1.20
2019-01-09T17:27:45.028Z,-1.20
2019-01-09T17:30:19.091Z,-1.20
2019-01-09T17:32:47.273Z,-1.20
2019-01-09T17:35:15.300Z,-1.20
2019-01-09T17:37:44.540Z,-1.20
2019-01-09T17:40:14.541Z,-1.20
2019-01-09T17:42:42.723Z,-1.20
2019-01-09T17:45:10.988Z,-1.20
2019-01-09T17:47:39.141Z,-1.20
2019-01-09T17:50:10.948Z,-1.20
2019-01-09T17:52:38.972Z,-1.20
2019-01-09T17:55:08.817Z,-1.20
2019-01-09T17:57:36.887Z,-1.20
2019-01-09T18:00:07.650Z,-1.20
2019-01-09T18:02:35.800Z,-1.20
2019-01-09T18:05:04.481Z,-1.20
2019-01-09T18:07:33.092Z,-1.20
2019-01-09T18:10:01.319Z,-1.20
2019-01-09T18:12:29.399Z,-1.20
2019-01-09T18:14:57.599Z,-1.20
2019-01-09T18:17:25.860Z,-1.20
2019-01-09T18:19:54.360Z,-1.20
2019-01-09T18:22:22.600Z,-1.20
2019-01-09T18:24:50.595Z,-1.30
2019-01-09T18:27:18.616Z,-1.20
2019-01-09T18:29:46.980Z,-1.30
2019-01-09T18:32:43.741Z,-1.30
2019-01-09T18:35:53.376Z,-1.30
2019-01-09T18:38:39.820Z,-1.30
2019-01-09T18:41:57.156Z,-1.30
2019-01-09T18:44:38.677Z,-1.30
2019-01-09T18:47:52.782Z,-1.30
2019-01-09T18:50:47.116Z,-1.30
2019-01-09T18:53:31.283Z,-1.30
2019-01-09T18:56:01.361Z,-1.30
2019-01-09T18:58:31.825Z,-1.30
2019-01-09T19:01:00.046Z,-1.30
2019-01-09T19:03:30.748Z,-1.30
2019-01-09T19:06:01.246Z,-1.30
2019-01-09T19:08:32.338Z,-1.30
2019-01-09T19:11:07.888Z,-1.30
2019-01-09T19:13:37.970Z,-1.30
2019-01-09T19:16:07.864Z,-1.30
2019-01-09T19:18:37.666Z,-1.30
2019-01-09T19:21:06.188Z,-1.30
2019-01-09T19:23:34.488Z,-1.30
2019-01-09T19:26:02.827Z,-1.30
2019-01-09T19:28:33.217Z,-1.30
2019-01-09T19:31:01.433Z,-1.40
2019-01-09T19:33:49.035Z,-1.40
2019-01-09T19:36:27.839Z,-1.40
2019-01-09T19:39:06.852Z,-1.40
2019-01-09T19:41:57.205Z,-1.40
2019-01-09T19:44:33.253Z,-1.40
2019-01-09T19:47:10.723Z,-1.40
2019-01-09T19:49:39.424Z,-1.40
2019-01-09T19:52:07.823Z,-1.40
2019-01-09T19:54:37.486Z,-1.40
2019-01-09T19:57:05.736Z,-1.40
2019-01-09T19:59:34.751Z,-1.40
2019-01-09T20:02:09.017Z,-1.40
2019-01-09T20:04:37.937Z,-1.40
2019-01-09T20:07:09.487Z,-1.40
2019-01-09T20:09:38.083Z,-1.40
2019-01-09T20:12:06.656Z,-1.40
2019-01-09T20:14:35.596Z,-1.40
2019-01-09T20:17:28.510Z,-1.50
2019-01-09T20:20:01.614Z,-1.40
2019-01-09T20:23:02.686Z,-1.50
2019-01-09T20:25:33.893Z,-1.50
2019-01-09T20:28:04.138Z,-1.50
2019-01-09T20:30:35.426Z,-1.50
2019-01-09T20:34:09.881Z,-1.50
2019-01-09T20:35:43.385Z,-1.50
2019-01-09T20:38:36.007Z,-1.50
2019-01-09T20:41:24.341Z,-1.50
2019-01-09T20:44:00.985Z,-1.50
2019-01-09T20:46:36.216Z,-1.50
2019-01-09T20:49:52.318Z,-1.50
2019-01-09T20:52:16.598Z,-1.50
2019-01-09T20:54:48.817Z,-1.50
2019-01-09T20:57:51.049Z,-1.50
2019-01-09T21:00:23.228Z,-1.50
2019-01-09T21:04:50.312Z,-1.50
2019-01-09T21:10:30.476Z,-1.50
2019-01-09T21:13:32.790Z,-1.60
2019-01-09T21:17:06.749Z,-1.60
2019-01-09T21:27:42.043Z,-1.60
2019-01-09T21:30:10.169Z,-1.50
2019-01-09T21:32:39.625Z,-1.50
2019-01-09T21:35:09.583Z,-1.50
2019-01-09T21:37:38.283Z,-1.50
2019-01-09T21:40:10.376Z,-1.60
2019-01-09T21:42:39.033Z,-1.60
2019-01-09T21:45:08.511Z,-1.50
2019-01-09T21:47:36.805Z,-1.60
2019-01-09T21:50:06.556Z,-1.60
2019-01-09T21:52:35.141Z,-1.60
2019-01-09T21:55:04.354Z,-1.60
2019-01-09T21:57:32.897Z,-1.60
2019-01-09T22:00:01.470Z,-1.50
2019-01-09T22:02:29.985Z,-1.50
2019-01-09T22:04:58.482Z,-1.60
2019-01-09T22:07:27.148Z,-1.60
2019-01-09T22:09:55.530Z,-1.60
2019-01-09T22:12:24.261Z,-1.50
2019-01-09T22:14:52.738Z,-1.50
2019-01-09T22:17:21.200Z,-1.50
2019-01-09T22:19:50.212Z,-1.50
2019-01-09T22:22:18.839Z,-1.50
2019-01-09T22:24:47.393Z,-1.50
2019-01-09T22:27:15.756Z,-1.50
2019-01-09T22:29:44.140Z,-1.50
2019-01-09T22:32:12.643Z,-1.50
2019-01-09T22:34:41.092Z,-1.50
2019-01-09T22:37:09.163Z,-1.50
2019-01-09T22:39:37.289Z,-1.50
2019-01-09T22:42:11.732Z,-1.60
2019-01-09T22:44:35.083Z,-1.50
2019-01-09T22:47:03.182Z,-1.60
2019-01-09T22:49:31.452Z,-1.60
2019-01-09T22:51:59.605Z,-1.50
2019-01-09T22:54:36.076Z,-1.50
2019-01-09T22:56:59.611Z,-1.60
2019-01-09T22:59:27.744Z,-1.50
2019-01-09T23:01:56.536Z,-1.50
2019-01-09T23:04:26.049Z,-1.50
2019-01-09T23:06:54.201Z,-1.50
2019-01-09T23:09:23.331Z,-1.50
2019-01-09T23:11:51.585Z,-1.50
2019-01-09T23:14:20.612Z,-1.50
2019-01-09T23:16:50.272Z,-1.50
2019-01-09T23:19:18.336Z,-1.50
2019-01-09T23:21:46.505Z,-1.50
2019-01-09T23:24:14.886Z,-1.50
2019-01-09T23:26:43.068Z,-1.50
2019-01-09T23:29:11.320Z,-1.50
2019-01-09T23:31:39.539Z,-1.50
2019-01-09T23:34:07.605Z,-1.50
2019-01-09T23:36:35.869Z,-1.50
2019-01-09T23:39:08.088Z,-1.50
2019-01-09T23:41:36.288Z,-1.50
2019-01-09T23:44:06.063Z,-1.50
2019-01-09T23:46:34.810Z,-1.50
2019-01-09T23:49:03.077Z,-1.50
2019-01-09T23:51:31.119Z,-1.50
2019-01-09T23:53:59.271Z,-1.50
2019-01-09T23:56:27.387Z,-1.50
2019-01-09T23:58:55.567Z,-1.50
